Time,TemperatureF,DewpointF,PressureIn,WindDirection,WindDirectionDegrees,WindSpeedMPH,WindSpeedGustMPH,Humidity,HourlyPrecipIn,Conditions,Clouds,dailyrainin,SoftwareType,DateUTC
2013-01-07 00:00:00,40.6,40.6,29.80,WNW,293,0.0,0.0,100,0.00,,,0.00,VWS V14.01,2013-01-07 08:00:00,
2013-01-07 00:10:00,40.6,40.6,29.77,WNW,293,0.0,0.0,100,0.00,,,0.00,VWS V14.01,2013-01-07 08:10:00,
2013-01-07 00:20:00,41.4,41.4,29.77,WNW,293,0.0,0.0,100,0.00,,,0.00,VWS V14.01,2013-01-07 08:20:00,
2013-01-07 00:30:00,41.2,41.2,29.77,WNW,293,0.0,0.0,100,0.00,,,0.00,VWS V14.01,2013-01-07 08:30:00,
2013-01-07 00:40:00,40.8,40.8,29.77,WNW,293,0.0,0.0,100,0.00,,,0.00,VWS V14.01,2013-01-07 08:40:00,
2013-01-07 00:50:00,41.2,41.2,29.77,WNW,293,0.0,0.0,100,0.00,,,0.00,VWS V14.01,2013-01-07 08:50:00,
2013-01-07 01:00:00,41.2,41.2,29.77,WNW,293,0.0,0.0,100,0.00,,,0.00,VWS V14.01,2013-01-07 09:00:00,
2013-01-07 01:10:00,41.4,41.4,29.77,WNW,293,0.0,0.0,100,0.00,,,0.00,VWS V14.01,2013-01-07 09:10:00,
2013-01-07 01:20:00,41.5,41.5,29.77,WNW,293,0.0,0.0,100,0.00,,,0.00,VWS V14.01,2013-01-07 09:20:00,
2013-01-07 01:30:00,41.2,41.2,29.77,WNW,293,0.0,0.0,100,0.00,,,0.00,VWS V14.01,2013-01-07 09:30:00,
2013-01-07 01:40:00,41.0,41.0,29.77,WNW,293,0.0,0.0,100,0.00,,,0.00,VWS V14.01,2013-01-07 09:40:00,
2013-01-07 01:50:00,41.0,41.0,29.77,WNW,293,0.0,0.0,100,0.00,,,0.00,VWS V14.01,2013-01-07 09:50:00,
2013-01-07 02:00:00,41.4,41.4,29.77,WNW,293,0.0,0.0,100,0.00,,,0.00,VWS V14.01,2013-01-07 10:00:00,
2013-01-07 02:10:00,40.8,40.8,29.77,WNW,293,0.0,0.0,100,0.00,,,0.00,VWS V14.01,2013-01-07 10:10:00,
2013-01-07 02:20:00,40.3,40.3,29.80,WNW,293,0.0,0.0,100,0.00,,,0.00,VWS V14.01,2013-01-07 10:20:00,
2013-01-07 02:30:00,40.5,40.5,29.80,WNW,293,0.0,0.0,100,0.00,,,0.00,VWS V14.01,2013-01-07 10:30:00,
2013-01-07 02:40:00,40.6,40.6,29.80,WNW,293,0.0,0.0,100,0.00,,,0.00,VWS V14.01,2013-01-07 10:40:00,
2013-01-07 02:50:00,40.6,40.6,29.80,WNW,293,0.0,0.0,100,0.00,,,0.00,VWS V14.01,2013-01-07 10:50:00,
2013-01-07 03:00:00,40.6,40.6,29.80,WNW,293,0.0,0.0,100,0.00,,,0.00,VWS V14.01,2013-01-07 11:00:00,
2013-01-07 03:10:00,40.5,40.5,29.80,WNW,293,0.0,0.0,100,0.00,,,0.00,VWS V14.01,2013-01-07 11:10:00,
2013-01-07 03:20:00,39.7,39.7,29.80,WNW,293,0.0,0.0,100,0.00,,,0.00,VWS V14.01,2013-01-07 11:20:00,
2013-01-07 03:30:00,39.9,39.9,29.80,WNW,293,0.0,0.0,100,0.00,,,0.00,VWS V14.01,2013-01-07 11:30:00,
2013-01-07 03:40:00,40.3,40.3,29.80,WNW,293,0.0,0.0,100,0.00,,,0.00,VWS V14.01,2013-01-07 11:40:00,
2013-01-07 03:50:00,40.1,40.1,29.80,WSW,258,0.0,0.0,100,0.00,,,0.00,VWS V14.01,2013-01-07 11:50:00,
2013-01-07 04:00:00,39.2,39.2,29.80,West,259,0.0,0.0,100,0.00,,,0.00,VWS V14.01,2013-01-07 12:00:00,
2013-01-07 04:10:00,38.5,38.5,29.80,SW,233,0.0,0.0,100,0.00,,,0.00,VWS V14.01,2013-01-07 12:10:00,
2013-01-07 04:20:00,38.1,38.1,29.80,WNW,300,0.0,0.0,100,0.00,,,0.00,VWS V14.01,2013-01-07 12:20:00,
2013-01-07 04:30:00,37.9,37.9,29.80,WNW,303,0.0,0.0,100,0.00,,,0.00,VWS V14.01,2013-01-07 12:30:00,
2013-01-07 04:40:00,38.3,38.3,29.80,NW,304,0.0,0.0,100,0.00,,,0.00,VWS V14.01,2013-01-07 12:40:00,
2013-01-07 04:50:00,39.2,39.2,29.77,NNE,33,0.0,0.0,100,0.00,,,0.00,VWS V14.01,2013-01-07 12:50:00,
2013-01-07 05:00:00,39.2,39.2,29.77,NE,51,0.0,0.0,100,0.00,,,0.00,VWS V14.01,2013-01-07 13:00:00,
2013-01-07 05:10:00,39.0,39.0,29.77,NE,51,0.0,0.0,100,0.00,,,0.00,VWS V14.01,2013-01-07 13:10:00,
2013-01-07 05:20:00,38.7,38.7,29.77,NE,52,0.0,0.0,100,0.00,,,0.00,VWS V14.01,2013-01-07 13:20:00,
2013-01-07 05:30:00,38.3,38.3,29.77,NE,52,0.0,0.0,100,0.00,,,0.00,VWS V14.01,2013-01-07 13:30:00,
2013-01-07 05:40:00,39.0,39.0,29.77,NE,52,0.0,0.0,100,0.00,,,0.00,VWS V14.01,2013-01-07 13:40:00,
2013-01-07 05:50:00,39.9,39.9,29.77,NE,52,0.0,0.0,100,0.00,,,0.00,VWS V14.01,2013-01-07 13:50:00,
2013-01-07 06:00:00,39.4,39.4,29.77,NE,52,0.0,0.0,100,0.00,,,0.00,VWS V14.01,2013-01-07 14:00:00,
2013-01-07 06:10:00,38.7,38.7,29.77,NE,52,0.0,0.0,100,0.00,,,0.00,VWS V14.01,2013-01-07 14:10:00,
2013-01-07 06:20:00,38.8,38.8,29.77,NE,52,0.0,0.0,100,0.00,,,0.00,VWS V14.01,2013-01-07 14:20:00,
2013-01-07 06:30:00,39.4,39.4,29.80,NE,52,0.0,0.0,100,0.00,,,0.00,VWS V14.01,2013-01-07 14:30:00,
2013-01-07 06:40:00,38.7,38.7,29.80,NE,52,0.0,0.0,100,0.00,,,0.00,VWS V14.01,2013-01-07 14:40:00,
2013-01-07 06:50:00,37.9,37.9,29.77,NE,52,0.0,0.0,100,0.00,,,0.00,VWS V14.01,2013-01-07 14:50:00,
2013-01-07 07:00:00,38.1,38.1,29.77,NE,52,0.0,0.0,100,0.00,,,0.00,VWS V14.01,2013-01-07 15:00:00,
2013-01-07 07:10:00,37.9,37.9,29.77,NE,50,0.0,0.0,100,0.00,,,0.00,VWS V14.01,2013-01-07 15:10:00,
2013-01-07 07:20:00,38.5,38.5,29.77,NE,50,0.0,0.0,100,0.00,,,0.00,VWS V14.01,2013-01-07 15:20:00,
2013-01-07 07:30:00,38.7,38.7,29.77,NE,50,0.0,0.0,100,0.00,,,0.00,VWS V14.01,2013-01-07 15:30:00,
2013-01-07 07:40:00,39.4,39.4,29.77,NE,48,0.0,0.0,100,0.00,,,0.00,VWS V14.01,2013-01-07 15:40:00,
2013-01-07 07:50:00,40.1,40.1,29.77,NE,48,0.0,0.0,100,0.00,,,0.00,VWS V14.01,2013-01-07 15:50:00,
2013-01-07 08:00:00,40.3,40.3,29.77,NE,48,0.0,0.0,100,0.00,,,0.00,VWS V14.01,2013-01-07 16:00:00,
2013-01-07 08:10:00,41.5,41.5,29.77,NE,48,0.0,0.0,100,0.00,,,0.00,VWS V14.01,2013-01-07 16:10:00,
2013-01-07 08:20:00,41.7,41.7,29.80,NE,48,0.0,0.0,100,0.00,,,0.00,VWS V14.01,2013-01-07 16:20:00,
2013-01-07 08:30:00,40.8,40.8,29.80,WNW,283,0.0,0.0,100,0.00,,,0.00,VWS V14.01,2013-01-07 16:30:00,
2013-01-07 08:40:00,40.3,40.3,29.80,WNW,283,0.0,0.0,100,0.00,,,0.00,VWS V14.01,2013-01-07 16:40:00,
2013-01-07 08:50:00,40.5,40.5,29.80,WNW,283,0.0,0.0,100,0.00,,,0.00,VWS V14.01,2013-01-07 16:50:00,
2013-01-07 09:00:00,41.9,41.9,29.80,WNW,283,0.0,0.0,100,0.00,,,0.00,VWS V14.01,2013-01-07 17:00:00,
2013-01-07 09:10:00,43.2,43.2,29.80,WSW,254,0.0,0.0,100,0.00,,,0.00,VWS V14.01,2013-01-07 17:10:00,
2013-01-07 09:20:00,42.4,42.4,29.83,WSW,249,0.0,0.0,100,0.00,,,0.00,VWS V14.01,2013-01-07 17:20:00,
2013-01-07 09:30:00,42.4,42.4,29.83,WSW,249,0.0,0.0,100,0.00,,,0.00,VWS V14.01,2013-01-07 17:30:00,
2013-01-07 09:40:00,43.9,43.9,29.83,WSW,249,0.0,0.0,100,0.00,,,0.00,VWS V14.01,2013-01-07 17:40:00,
2013-01-07 09:50:00,44.8,44.8,29.83,WSW,243,0.0,0.0,100,0.00,,,0.00,VWS V14.01,2013-01-07 17:50:00,
2013-01-07 10:00:00,45.9,45.9,29.83,WSW,252,0.0,0.0,100,0.00,,,0.00,VWS V14.01,2013-01-07 18:00:00,
2013-01-07 10:10:00,46.4,46.4,29.83,WSW,252,0.0,0.0,100,0.00,,,0.00,VWS V14.01,2013-01-07 18:10:00,
2013-01-07 10:20:00,48.6,48.6,29.83,WSW,243,0.0,0.0,100,0.00,,,0.00,VWS V14.01,2013-01-07 18:20:00,
2013-01-07 10:30:00,48.6,48.6,29.83,West,260,0.0,0.0,100,0.00,,,0.00,VWS V14.01,2013-01-07 18:30:00,
2013-01-07 10:40:00,50.0,50.0,29.83,NW,307,0.0,0.0,100,0.00,,,0.00,VWS V14.01,2013-01-07 18:40:00,
2013-01-07 10:50:00,50.4,50.4,29.83,WSW,254,0.0,2.7,100,0.00,,BKN200,0.00,VWS V14.01,2013-01-07 18:50:00,
2013-01-07 11:00:00,50.5,49.5,29.83,WNW,298,0.0,0.0,96,0.00,,BKN200,0.00,VWS V14.01,2013-01-07 19:00:00,
2013-01-07 11:10:00,51.3,46.0,29.83,WSW,256,0.0,2.7,82,0.00,,BKN200,0.00,VWS V14.01,2013-01-07 19:10:00,
2013-01-07 11:20:00,52.0,46.3,29.83,West,276,0.0,4.0,81,0.00,,BKN200,0.00,VWS V14.01,2013-01-07 19:20:00,
2013-01-07 11:30:00,52.7,46.7,29.83,West,262,0.0,3.6,80,0.00,,BKN200,0.00,VWS V14.01,2013-01-07 19:30:00,
2013-01-07 11:40:00,52.7,46.7,29.83,SW,225,0.0,3.6,80,0.00,,BKN200,0.00,VWS V14.01,2013-01-07 19:40:00,
2013-01-07 11:50:00,54.0,47.3,29.83,SW,228,0.0,2.2,78,0.00,,BKN200,0.00,VWS V14.01,2013-01-07 19:50:00,
2013-01-07 12:00:00,54.0,46.9,29.83,WNW,287,0.0,3.6,77,0.00,,BKN200,0.00,VWS V14.01,2013-01-07 20:00:00,
2013-01-07 12:10:00,54.1,47.1,29.83,WSW,237,2.2,5.4,77,0.00,,BKN200,0.00,VWS V14.01,2013-01-07 20:10:00,
2013-01-07 12:20:00,53.8,46.4,29.83,SSW,208,0.0,2.2,76,0.00,,BKN200,0.00,VWS V14.01,2013-01-07 20:20:00,
2013-01-07 12:30:00,53.8,46.4,29.83,WSW,246,0.0,3.1,76,0.00,,BKN200,0.00,VWS V14.01,2013-01-07 20:30:00,
2013-01-07 12:40:00,54.5,47.1,29.80,NW,307,0.0,0.0,76,0.00,,BKN200,0.00,VWS V14.01,2013-01-07 20:40:00,
2013-01-07 12:50:00,55.6,47.4,29.77,NNE,16,0.0,0.0,74,0.00,,BKN200,0.00,VWS V14.01,2013-01-07 20:50:00,
2013-01-07 13:00:00,56.3,48.1,29.77,North,0,0.0,0.0,74,0.00,,BKN200,0.00,VWS V14.01,2013-01-07 21:00:00,
2013-01-07 13:10:00,56.5,47.6,29.77,WNW,294,0.0,0.0,72,0.00,,BKN200,0.00,VWS V14.01,2013-01-07 21:10:00,
2013-01-07 13:20:00,56.7,48.5,29.77,WSW,250,2.7,2.7,74,0.00,,CLR,0.00,VWS V14.01,2013-01-07 21:20:00,
2013-01-07 13:30:00,57.0,48.1,29.77,WSW,239,0.0,2.7,72,0.00,,CLR,0.00,VWS V14.01,2013-01-07 21:30:00,
2013-01-07 13:40:00,58.1,48.8,29.77,SSW,212,0.0,2.7,71,0.00,,CLR,0.00,VWS V14.01,2013-01-07 21:40:00,
2013-01-07 13:50:00,58.5,49.1,29.77,SW,229,0.0,4.0,71,0.00,,CLR,0.00,VWS V14.01,2013-01-07 21:50:00,
2013-01-07 14:00:00,59.0,50.0,29.77,SW,236,0.0,2.7,72,0.00,,CLR,0.00,VWS V14.01,2013-01-07 22:00:00,
2013-01-07 14:10:00,59.2,50.2,29.77,SW,219,0.0,2.7,72,0.00,,CLR,0.00,VWS V14.01,2013-01-07 22:10:00,
2013-01-07 14:20:00,59.4,50.0,29.74,SW,229,0.0,2.2,71,0.00,,CLR,0.00,VWS V14.01,2013-01-07 22:20:00,
2013-01-07 14:30:00,59.5,50.1,29.74,West,274,0.0,3.1,71,0.00,,CLR,0.00,VWS V14.01,2013-01-07 22:30:00,
2013-01-07 14:40:00,59.4,49.6,29.74,WNW,282,0.0,3.1,70,0.00,,CLR,0.00,VWS V14.01,2013-01-07 22:40:00,
2013-01-07 14:50:00,59.2,49.4,29.74,SW,234,3.6,3.6,70,0.00,,BKN250,0.00,VWS V14.01,2013-01-07 22:50:00,
2013-01-07 15:00:00,58.8,49.8,29.74,SW,232,0.0,3.6,72,0.00,,BKN250,0.00,VWS V14.01,2013-01-07 23:00:00,
2013-01-07 15:10:00,58.5,50.2,29.74,WSW,257,0.0,0.0,74,0.00,,BKN250,0.00,VWS V14.01,2013-01-07 23:10:00,
2013-01-07 15:20:00,58.5,50.2,29.74,West,265,0.0,0.0,74,0.00,,BKN250,0.00,VWS V14.01,2013-01-07 23:20:00,
2013-01-07 15:30:00,58.5,50.6,29.74,WNW,283,0.0,0.0,75,0.00,,BKN250,0.00,VWS V14.01,2013-01-07 23:30:00,
2013-01-07 15:40:00,58.5,50.6,29.74,WNW,283,0.0,0.0,75,0.00,,BKN250,0.00,VWS V14.01,2013-01-07 23:40:00,
2013-01-07 15:50:00,58.5,51.3,29.74,WNW,283,0.0,0.0,77,0.00,,BKN250,0.00,VWS V14.01,2013-01-07 23:50:00,
2013-01-07 16:00:00,58.3,51.1,29.74,WNW,283,0.0,0.0,77,0.00,,BKN250,0.00,VWS V14.01,2013-01-08 00:00:00,
2013-01-07 16:10:00,58.3,51.1,29.74,WNW,283,0.0,0.0,77,0.00,,BKN250,0.00,VWS V14.01,2013-01-08 00:10:00,
2013-01-07 16:20:00,57.7,52.0,29.74,WNW,283,0.0,0.0,81,0.00,,BKN250,0.00,VWS V14.01,2013-01-08 00:20:00,
2013-01-07 16:30:00,57.4,51.9,29.77,WNW,283,0.0,0.0,82,0.00,,BKN250,0.00,VWS V14.01,2013-01-08 00:30:00,
2013-01-07 16:40:00,56.8,52.1,29.77,WNW,283,0.0,0.0,84,0.00,,BKN250,0.00,VWS V14.01,2013-01-08 00:40:00,
2013-01-07 16:50:00,56.5,52.0,29.77,WNW,283,0.0,0.0,85,0.00,,BKN250,0.00,VWS V14.01,2013-01-08 00:50:00,
2013-01-07 17:00:00,56.1,52.0,29.77,WNW,283,0.0,0.0,86,0.00,,BKN250,0.00,VWS V14.01,2013-01-08 01:00:00,
2013-01-07 17:10:00,55.6,51.8,29.77,WNW,283,0.0,0.0,87,0.00,,BKN250,0.00,VWS V14.01,2013-01-08 01:10:00,
2013-01-07 17:20:00,55.4,52.2,29.77,WNW,283,0.0,0.0,89,0.00,,BKN250,0.00,VWS V14.01,2013-01-08 01:20:00,
2013-01-07 17:30:00,54.9,51.7,29.74,WNW,283,0.0,0.0,89,0.00,,BKN250,0.00,VWS V14.01,2013-01-08 01:30:00,
2013-01-07 17:40:00,54.7,51.8,29.74,WNW,283,0.0,0.0,90,0.00,,BKN250,0.00,VWS V14.01,2013-01-08 01:40:00,
2013-01-07 17:50:00,54.3,51.8,29.74,WNW,283,0.0,0.0,91,0.00,,BKN250,0.00,VWS V14.01,2013-01-08 01:50:00,
2013-01-07 18:00:00,54.0,51.4,29.74,WNW,283,0.0,0.0,91,0.00,,BKN250,0.00,VWS V14.01,2013-01-08 02:00:00,
2013-01-07 18:10:00,53.8,51.5,29.74,WNW,283,0.0,0.0,92,0.00,,BKN250,0.00,VWS V14.01,2013-01-08 02:10:00,
2013-01-07 18:20:00,53.8,51.5,29.74,WNW,283,0.0,0.0,92,0.00,,BKN250,0.00,VWS V14.01,2013-01-08 02:20:00,
2013-01-07 18:30:00,53.4,51.7,29.74,SW,227,0.0,0.0,94,0.00,,BKN250,0.00,VWS V14.01,2013-01-08 02:30:00,
2013-01-07 18:40:00,52.9,51.2,29.77,SW,222,0.0,0.0,94,0.00,,BKN250,0.00,VWS V14.01,2013-01-08 02:40:00,
2013-01-07 18:50:00,52.5,50.8,29.77,SW,222,0.0,0.0,94,0.00,,BKN120,0.00,VWS V14.01,2013-01-08 02:50:00,
2013-01-07 19:00:00,52.3,50.7,29.77,SW,222,0.0,0.0,94,0.00,,BKN120,0.00,VWS V14.01,2013-01-08 03:00:00,
2013-01-07 19:10:00,51.8,50.4,29.77,SW,215,0.0,0.0,95,0.00,,BKN120,0.00,VWS V14.01,2013-01-08 03:10:00,
2013-01-07 19:20:00,51.6,50.2,29.77,SW,215,0.0,0.0,95,0.00,,BKN120,0.00,VWS V14.01,2013-01-08 03:20:00,
2013-01-07 19:30:00,51.6,50.5,29.77,SW,215,0.0,0.0,96,0.00,,BKN120,0.00,VWS V14.01,2013-01-08 03:30:00,
2013-01-07 19:40:00,51.3,50.2,29.77,SW,215,0.0,0.0,96,0.00,,BKN120,0.00,VWS V14.01,2013-01-08 03:40:00,
2013-01-07 19:50:00,51.1,50.0,29.77,SW,215,0.0,0.0,96,0.00,,CLR,0.00,VWS V14.01,2013-01-08 03:50:00,
2013-01-07 20:00:00,50.7,49.9,29.77,SW,215,0.0,0.0,97,0.00,,CLR,0.00,VWS V14.01,2013-01-08 04:00:00,
2013-01-07 20:10:00,50.5,49.7,29.77,SW,215,0.0,0.0,97,0.00,,CLR,0.00,VWS V14.01,2013-01-08 04:10:00,
2013-01-07 20:20:00,50.4,49.5,29.77,SSW,213,0.0,0.0,97,0.00,,CLR,0.00,VWS V14.01,2013-01-08 04:20:00,
2013-01-07 20:30:00,50.4,49.5,29.77,SSW,212,0.0,0.0,97,0.00,,CLR,0.00,VWS V14.01,2013-01-08 04:30:00,
2013-01-07 20:40:00,50.4,49.5,29.77,SSW,212,0.0,0.0,97,0.00,,CLR,0.00,VWS V14.01,2013-01-08 04:40:00,
2013-01-07 20:50:00,50.4,49.5,29.77,SSW,212,0.0,0.0,97,0.00,,BKN100,0.00,VWS V14.01,2013-01-08 04:50:00,
2013-01-07 21:10:00,49.5,48.9,29.77,SSW,212,0.0,0.0,98,0.00,,BKN100,0.00,VWS V14.01,2013-01-08 05:10:00,
2013-01-07 21:20:00,49.5,48.9,29.77,SSW,212,0.0,0.0,98,0.00,,BKN100,0.00,VWS V14.01,2013-01-08 05:20:00,
2013-01-07 21:30:00,49.3,48.7,29.77,SSW,212,0.0,0.0,98,0.00,,BKN100,0.00,VWS V14.01,2013-01-08 05:30:00,
2013-01-07 21:40:00,49.5,48.9,29.77,SSW,212,0.0,0.0,98,0.00,,BKN100,0.00,VWS V14.01,2013-01-08 05:40:00,
2013-01-07 21:50:00,49.5,49.2,29.77,SSW,212,0.0,0.0,99,0.00,,CLR,0.00,VWS V14.01,2013-01-08 05:50:00,
2013-01-07 22:00:00,49.1,48.8,29.77,SSW,212,0.0,0.0,99,0.00,,CLR,0.00,VWS V14.01,2013-01-08 06:00:00,
2013-01-07 22:10:00,49.1,48.8,29.77,SSW,212,0.0,0.0,99,0.00,,CLR,0.00,VWS V14.01,2013-01-08 06:10:00,
2013-01-07 22:20:00,48.7,48.5,29.77,SSW,212,0.0,0.0,99,0.00,,CLR,0.00,VWS V14.01,2013-01-08 06:20:00,
2013-01-07 22:30:00,48.7,48.5,29.77,SSW,212,0.0,0.0,99,0.00,,CLR,0.00,VWS V14.01,2013-01-08 06:30:00,
2013-01-07 22:40:00,48.7,48.5,29.77,SSW,212,0.0,0.0,99,0.00,,CLR,0.00,VWS V14.01,2013-01-08 06:40:00,
2013-01-07 22:50:00,48.4,48.1,29.77,SSW,212,0.0,0.0,99,0.00,,,0.00,VWS V14.01,2013-01-08 06:50:00,
2013-01-07 23:00:00,48.2,47.9,29.77,SSW,212,0.0,0.0,99,0.00,,,0.00,VWS V14.01,2013-01-08 07:00:00,
2013-01-07 23:10:00,47.5,47.5,29.77,SSW,212,0.0,0.0,100,0.00,,,0.00,VWS V14.01,2013-01-08 07:10:00,
2013-01-07 23:20:00,47.3,47.3,29.77,SSW,212,0.0,0.0,100,0.00,,,0.00,VWS V14.01,2013-01-08 07:20:00,
2013-01-07 23:30:00,47.3,47.3,29.77,SSW,212,0.0,0.0,100,0.00,,,0.00,VWS V14.01,2013-01-08 07:30:00,
2013-01-07 23:40:00,47.5,47.5,29.77,SSW,212,0.0,0.0,100,0.00,,,0.00,VWS V14.01,2013-01-08 07:40:00,
2013-01-07 23:50:00,47.3,47.3,29.77,SSW,212,0.0,0.0,100,0.00,,,0.00,VWS V14.01,2013-01-08 07:50:00,